KBHM/BHM METAR and TAF weather

Enter ICAO airport designator
Station Type Date Time Source
KBHM METAR 2020/02/24 23:53 UTC NOAA

KBHM 242353Z VRB04KT 9SM -RA BKN008 OVC032 12/10 A2980 RMK AO2 RAE2254B48 SLP091 P0000 60056 T01170100 10117 20100 56014


Station Type Date Time Source
KBHM Decoded METAR 2020/02/24 23:53 UTC NOAA

BIRMINGHAM INT'L AIRPORT, AL, United States (KBHM) 33-34N 086-45W 197M
Feb 24, 2020 - 06:53 PM EST / 2020.02.24 2353 UTC
Wind: Variable at 5 MPH (4 KT):0
Visibility: 9 mile(s):0
Sky conditions: overcast
Weather: light rain
Precipitation last hour: A trace
Temperature: 53.1 F (11.7 C)
Dew Point: 50.0 F (10.0 C)
Relative Humidity: 89%
Pressure (altimeter): 29.8 in. Hg (1009 hPa)
Pressure tendency: 0.04 inches (1.4 hPa) lower than three hours ago
ob: KBHM 242353Z VRB04KT 9SM -RA BKN008 OVC032 12/10 A2980 RMK AO2 RAE2254B48 SLP091 P0000 60056 T01170100 10117 20100 56014
cycle: 0

Station Type Date Time Source
KBHM TAF 2020/02/24 20:30 UTC NOAA

TAF
AMD KBHM 242028Z 2420/2518 12005KT 5SM -SHRA BR SCT008 OVC025
TEMPO 2420/2424 3SM -SHRA BKN008
FM250000 19007KT 5SM -SHRA OVC007
FM250500 21008KT P6SM BKN015 PROB30 2506/2508 4SM -SHRA OVC015
FM251600 27006KT P6SM OVC035

Example: see airport list